createdAt,value
2017-06-30T00:01:12.766Z,97628.12
2017-06-30T00:03:42.507Z,97623.94
2017-06-30T00:06:12.261Z,97621.98
2017-06-30T00:08:41.985Z,97619.86
2017-06-30T00:11:11.706Z,97625.70
2017-06-30T00:13:41.432Z,97635.33
2017-06-30T00:16:11.172Z,97641.28
2017-06-30T00:18:40.929Z,97643.22
2017-06-30T00:21:10.650Z,97641.50
2017-06-30T00:23:40.407Z,97648.22
2017-06-30T00:26:10.140Z,97657.23
2017-06-30T00:28:39.869Z,97654.91
2017-06-30T00:31:09.605Z,97652.85
2017-06-30T00:33:39.321Z,97658.84
2017-06-30T00:36:09.080Z,97649.30
2017-06-30T00:38:38.812Z,97655.05
2017-06-30T00:41:08.548Z,97661.70
2017-06-30T00:43:38.284Z,97659.83
2017-06-30T00:46:08.024Z,97660.13
2017-06-30T00:48:37.744Z,97666.33
2017-06-30T00:51:07.550Z,97669.02
2017-06-30T00:53:37.304Z,97674.20
2017-06-30T00:56:07.076Z,97669.86
2017-06-30T00:58:36.790Z,97671.03
2017-06-30T01:01:06.544Z,97679.08
2017-06-30T01:03:36.288Z,97683.41
2017-06-30T01:06:06.018Z,97686.79
2017-06-30T01:08:35.745Z,97682.45
2017-06-30T01:11:05.480Z,97690.72
2017-06-30T01:16:14.052Z,97688.98
2017-06-30T01:18:43.794Z,97692.11
2017-06-30T01:21:13.555Z,97691.05
2017-06-30T01:23:43.473Z,97694.83
2017-06-30T01:26:13.207Z,97682.89
2017-06-30T01:28:43.040Z,97683.77
2017-06-30T01:31:12.769Z,97675.14
2017-06-30T01:33:42.490Z,97668.16
2017-06-30T01:36:12.228Z,97667.80
2017-06-30T01:38:41.957Z,97678.44
2017-06-30T01:41:11.675Z,97682.77
2017-06-30T01:43:41.428Z,97683.22
2017-06-30T01:46:11.142Z,97685.45
2017-06-30T01:48:40.879Z,97682.80
2017-06-30T01:51:10.674Z,97677.36
2017-06-30T01:53:40.405Z,97678.06
2017-06-30T01:56:09.780Z,97680.16
2017-06-30T01:58:39.521Z,97684.13
2017-06-30T02:01:09.245Z,97695.61
2017-06-30T02:03:38.980Z,97697.06
2017-06-30T02:06:08.701Z,97694.42
2017-06-30T02:08:38.437Z,97701.22
2017-06-30T02:11:08.008Z,97710.48
2017-06-30T02:13:37.734Z,97710.86
2017-06-30T02:16:07.461Z,97716.16
2017-06-30T02:18:37.196Z,97712.50
2017-06-30T02:21:06.955Z,97713.48
2017-06-30T02:23:36.673Z,97717.87
2017-06-30T02:26:06.487Z,97718.75
2017-06-30T02:28:36.234Z,97725.35
2017-06-30T02:31:05.961Z,97721.33
2017-06-30T02:33:35.694Z,97720.16
2017-06-30T02:36:05.414Z,97721.60
2017-06-30T02:38:35.239Z,97727.63
2017-06-30T02:41:04.961Z,97724.67
2017-06-30T02:43:34.694Z,97728.33
2017-06-30T02:46:04.433Z,97721.20
2017-06-30T02:48:34.175Z,97720.60
2017-06-30T02:51:03.989Z,97723.75
2017-06-30T02:53:33.732Z,97726.39
2017-06-30T02:56:03.460Z,97735.70
2017-06-30T02:58:33.208Z,97747.81
2017-06-30T03:01:02.947Z,97744.27
2017-06-30T03:03:32.777Z,97751.00
2017-06-30T03:06:02.509Z,97749.58
2017-06-30T03:08:32.233Z,97751.63
2017-06-30T03:11:02.104Z,97763.03
2017-06-30T03:13:31.819Z,97771.01
2017-06-30T03:16:01.602Z,97768.00
2017-06-30T03:18:31.321Z,97782.53
2017-06-30T03:21:01.041Z,97778.14
2017-06-30T03:23:30.798Z,97784.76
2017-06-30T03:26:00.552Z,97784.56
2017-06-30T03:28:30.261Z,97781.58
2017-06-30T03:30:59.996Z,97783.58
2017-06-30T03:33:29.725Z,97797.16
2017-06-30T03:35:59.494Z,97797.32
2017-06-30T03:38:29.224Z,97801.59
2017-06-30T03:40:58.957Z,97792.83
2017-06-30T03:43:28.677Z,97790.87
2017-06-30T03:45:58.418Z,97797.45
2017-06-30T03:48:28.199Z,97793.48
2017-06-30T03:50:57.889Z,97792.42
2017-06-30T03:53:27.636Z,97791.98
2017-06-30T03:55:57.376Z,97789.01
2017-06-30T03:58:27.116Z,97790.02
2017-06-30T04:00:56.860Z,97792.66
2017-06-30T04:03:26.590Z,97791.71
2017-06-30T04:05:56.369Z,97795.56
2017-06-30T04:08:26.113Z,97799.86
2017-06-30T04:10:55.854Z,97793.39
2017-06-30T04:13:25.588Z,97804.31
2017-06-30T04:15:55.317Z,97805.80
2017-06-30T04:18:25.065Z,97809.96
2017-06-30T04:20:54.793Z,97812.59
2017-06-30T04:23:24.521Z,97814.30
2017-06-30T04:25:54.261Z,97819.58
2017-06-30T04:28:23.989Z,97818.71
2017-06-30T04:30:53.742Z,97809.10
2017-06-30T04:33:23.489Z,97809.77
2017-06-30T04:35:53.221Z,97807.98
2017-06-30T04:38:22.957Z,97811.59
2017-06-30T04:40:52.697Z,97815.88
2017-06-30T04:43:22.432Z,97818.44
2017-06-30T04:45:52.177Z,97812.72
2017-06-30T04:48:21.910Z,97809.98
2017-06-30T04:50:51.764Z,97820.02
2017-06-30T04:53:21.506Z,97816.61
2017-06-30T04:55:52.066Z,97821.56
2017-06-30T04:58:21.787Z,97825.83
2017-06-30T05:00:51.509Z,97831.90
2017-06-30T05:03:21.251Z,97828.67
2017-06-30T05:05:50.972Z,97823.82
2017-06-30T05:08:20.697Z,97821.42
2017-06-30T05:10:50.437Z,97817.94
2017-06-30T05:13:20.158Z,97830.84
2017-06-30T05:15:49.889Z,97843.81
2017-06-30T05:18:19.642Z,97843.27
2017-06-30T05:20:49.376Z,97845.41
2017-06-30T05:23:20.065Z,97844.41
2017-06-30T05:25:49.798Z,97853.91
2017-06-30T05:28:19.532Z,97855.12
2017-06-30T05:30:49.281Z,97866.81
2017-06-30T05:33:19.008Z,97877.16
2017-06-30T05:35:48.755Z,97894.13
2017-06-30T05:38:18.490Z,97903.04
2017-06-30T05:40:48.225Z,97904.45
2017-06-30T05:43:17.972Z,97901.30
2017-06-30T05:45:47.701Z,97904.69
2017-06-30T05:48:17.425Z,97902.38
2017-06-30T05:50:47.981Z,97893.41
2017-06-30T05:53:17.702Z,97889.41
2017-06-30T05:55:47.447Z,97889.18
2017-06-30T05:58:17.181Z,97884.40
2017-06-30T06:00:46.905Z,97884.63
2017-06-30T06:03:16.644Z,97905.06
2017-06-30T06:05:49.045Z,97904.69
2017-06-30T06:08:20.942Z,97910.09
2017-06-30T06:10:52.162Z,97921.02
2017-06-30T06:13:22.719Z,97915.50
2017-06-30T06:15:52.528Z,97931.95
2017-06-30T06:18:22.310Z,97931.21
2017-06-30T06:20:52.053Z,97931.41
2017-06-30T06:23:21.829Z,97928.86
2017-06-30T06:25:51.581Z,97939.12
2017-06-30T06:28:21.313Z,97936.64
2017-06-30T06:30:51.060Z,97933.72
2017-06-30T06:33:20.780Z,97936.28
2017-06-30T06:35:50.530Z,97942.09
2017-06-30T06:38:20.852Z,97937.53
2017-06-30T06:40:50.618Z,97943.48
2017-06-30T06:43:20.064Z,97939.30
2017-06-30T06:45:49.796Z,97947.77
2017-06-30T06:48:19.245Z,97939.43
2017-06-30T06:50:48.979Z,97936.73
2017-06-30T06:53:18.716Z,97945.98
2017-06-30T06:55:48.183Z,97958.50
2017-06-30T06:58:17.949Z,97960.83
2017-06-30T07:00:47.705Z,97965.73
2017-06-30T07:03:17.536Z,97966.33
2017-06-30T07:05:47.265Z,97961.75
2017-06-30T07:08:16.716Z,97963.90
2017-06-30T07:10:46.310Z,97960.91
2017-06-30T07:13:16.074Z,97953.56
2017-06-30T07:15:45.561Z,97951.56
2017-06-30T07:18:15.392Z,97953.75
2017-06-30T07:20:44.901Z,97951.23
2017-06-30T07:23:14.637Z,97949.27
2017-06-30T07:25:44.127Z,97946.31
2017-06-30T07:28:13.892Z,97948.19
2017-06-30T07:30:43.629Z,97967.27
2017-06-30T07:33:13.380Z,97956.95
2017-06-30T07:35:43.158Z,97957.69
2017-06-30T07:38:12.629Z,97952.16
2017-06-30T07:40:42.080Z,97950.45
2017-06-30T07:43:11.598Z,97946.69
2017-06-30T07:45:41.513Z,97943.00
2017-06-30T07:48:10.994Z,97943.77
2017-06-30T07:50:40.441Z,97945.36
2017-06-30T07:53:09.773Z,97951.03
2017-06-30T07:55:39.235Z,97952.86
2017-06-30T07:58:08.720Z,97958.42
2017-06-30T08:00:38.178Z,97951.19
2017-06-30T08:03:07.643Z,97950.95
2017-06-30T08:05:37.086Z,97947.97
2017-06-30T08:08:06.547Z,97918.89
2017-06-30T08:10:36.004Z,97903.83
2017-06-30T08:13:05.466Z,97909.03
2017-06-30T08:15:34.918Z,97901.41
2017-06-30T08:18:04.412Z,97915.31
2017-06-30T08:20:33.861Z,97924.74
2017-06-30T08:23:03.301Z,97932.41
2017-06-30T08:25:32.758Z,97931.08
2017-06-30T08:28:02.221Z,97918.75
2017-06-30T08:30:31.674Z,97901.30
2017-06-30T08:33:01.127Z,97931.32
2017-06-30T08:35:30.577Z,97925.28
2017-06-30T08:38:00.025Z,97934.83
2017-06-30T08:40:29.481Z,97922.88
2017-06-30T08:42:58.951Z,97931.80
2017-06-30T08:45:28.442Z,97932.98
2017-06-30T08:47:57.893Z,97936.19
2017-06-30T08:50:27.349Z,97939.50
2017-06-30T08:52:56.814Z,97926.98
2017-06-30T08:55:26.310Z,97942.69
2017-06-30T08:57:56.578Z,97948.05
2017-06-30T09:00:26.045Z,97958.74
2017-06-30T09:02:55.502Z,97948.05
2017-06-30T09:05:24.957Z,97937.97
2017-06-30T09:07:54.419Z,97936.27
2017-06-30T09:10:23.959Z,97953.44
2017-06-30T09:12:53.397Z,97961.59
2017-06-30T09:15:22.973Z,97937.31
2017-06-30T09:17:52.225Z,97947.62
2017-06-30T09:20:21.706Z,97964.91
2017-06-30T09:22:51.154Z,97955.51
2017-06-30T09:25:20.648Z,97972.56
2017-06-30T09:27:50.153Z,97958.14
2017-06-30T09:30:19.632Z,97949.80
2017-06-30T09:32:49.078Z,97956.81
2017-06-30T09:35:18.550Z,97956.50
2017-06-30T09:37:48.074Z,97966.20
2017-06-30T09:40:17.629Z,97954.47
2017-06-30T09:42:47.164Z,97951.36
2017-06-30T09:45:16.671Z,97948.86
2017-06-30T09:47:46.122Z,97949.91
2017-06-30T09:50:15.609Z,97939.59
2017-06-30T09:52:45.064Z,97937.21
2017-06-30T09:55:14.536Z,97939.86
2017-06-30T09:57:43.989Z,97937.25
2017-06-30T10:00:13.497Z,97948.84
2017-06-30T10:02:42.737Z,97934.20
2017-06-30T10:05:12.204Z,97933.19
2017-06-30T10:07:41.637Z,97940.43
2017-06-30T10:10:11.129Z,97937.21
2017-06-30T10:12:40.586Z,97933.98
2017-06-30T10:15:10.075Z,97935.03
2017-06-30T10:17:39.515Z,97931.64
2017-06-30T10:20:09.054Z,97922.33
2017-06-30T10:22:38.526Z,97925.94
2017-06-30T10:25:07.979Z,97931.17
2017-06-30T10:27:37.412Z,97928.97
2017-06-30T10:30:06.912Z,97933.41
2017-06-30T10:32:36.369Z,97927.03
2017-06-30T10:35:05.866Z,97920.06
2017-06-30T10:37:35.305Z,97936.42
2017-06-30T10:40:04.789Z,97942.09
2017-06-30T10:42:34.288Z,97935.61
2017-06-30T10:45:03.762Z,97934.08
2017-06-30T10:47:33.267Z,97934.89
2017-06-30T10:50:02.775Z,97933.17
2017-06-30T10:52:32.209Z,97926.41
2017-06-30T10:55:01.859Z,97922.30
2017-06-30T10:57:31.290Z,97929.16
2017-06-30T11:00:00.582Z,97923.05
2017-06-30T11:02:29.846Z,97950.94
2017-06-30T11:04:59.286Z,97924.84
2017-06-30T11:07:28.743Z,97919.22
2017-06-30T11:09:58.182Z,97929.47
2017-06-30T11:12:27.646Z,97943.41
2017-06-30T11:14:57.145Z,97947.22
2017-06-30T11:17:26.597Z,97940.78
2017-06-30T11:19:56.080Z,97927.31
2017-06-30T11:22:25.548Z,97895.23
2017-06-30T11:24:55.000Z,97899.06
2017-06-30T11:27:24.466Z,97892.22
2017-06-30T11:29:53.918Z,97904.80
2017-06-30T11:32:23.422Z,97907.52
2017-06-30T11:34:52.866Z,97878.75
2017-06-30T11:37:22.376Z,97879.44
2017-06-30T11:39:51.806Z,97868.03
2017-06-30T11:42:21.257Z,97847.21
2017-06-30T11:44:50.754Z,97855.23
2017-06-30T11:47:20.191Z,97869.42
2017-06-30T11:49:49.689Z,97866.84
2017-06-30T11:52:19.178Z,97865.86
2017-06-30T11:54:48.626Z,97854.03
2017-06-30T11:57:18.056Z,97855.63
2017-06-30T11:59:47.513Z,97854.72
2017-06-30T12:02:16.974Z,97865.98
2017-06-30T12:04:46.433Z,97861.86
2017-06-30T12:07:15.884Z,97858.57
2017-06-30T12:09:45.603Z,97860.59
2017-06-30T12:12:15.113Z,97846.98
2017-06-30T12:14:44.558Z,97841.04
2017-06-30T12:17:14.004Z,97838.94
2017-06-30T12:19:43.464Z,97843.56
2017-06-30T12:22:12.916Z,97852.34
2017-06-30T12:24:42.385Z,97856.09
2017-06-30T12:27:11.850Z,97852.87
2017-06-30T12:29:41.301Z,97846.96
2017-06-30T12:32:10.746Z,97843.84
2017-06-30T12:34:40.981Z,97851.28
2017-06-30T12:37:10.470Z,97846.14
2017-06-30T12:39:39.918Z,97837.85
2017-06-30T12:42:09.369Z,97847.03
2017-06-30T12:44:38.812Z,97844.75
2017-06-30T12:47:08.298Z,97846.20
2017-06-30T12:49:37.795Z,97831.30
2017-06-30T12:52:07.402Z,97834.28
2017-06-30T12:54:36.926Z,97818.62
2017-06-30T12:57:06.402Z,97812.62
2017-06-30T12:59:35.849Z,97807.08
2017-06-30T13:02:05.747Z,97806.64
2017-06-30T13:04:36.274Z,97806.83
2017-06-30T13:07:05.850Z,97803.75
2017-06-30T13:09:35.508Z,97820.69
2017-06-30T13:12:04.964Z,97826.89
2017-06-30T13:14:34.389Z,97818.31
2017-06-30T13:17:03.837Z,97833.32
2017-06-30T13:19:33.285Z,97826.89
2017-06-30T13:22:02.732Z,97821.16
2017-06-30T13:24:32.221Z,97817.41
2017-06-30T13:27:01.689Z,97812.84
2017-06-30T13:29:31.117Z,97812.17
2017-06-30T13:32:00.589Z,97810.59
2017-06-30T13:34:30.037Z,97803.00
2017-06-30T13:36:59.507Z,97808.98
2017-06-30T13:39:28.977Z,97806.64
2017-06-30T13:41:58.449Z,97796.77
2017-06-30T13:44:27.902Z,97800.45
2017-06-30T13:46:57.338Z,97805.25
2017-06-30T13:49:26.799Z,97799.78
2017-06-30T13:51:56.258Z,97805.70
2017-06-30T13:54:25.718Z,97780.64
2017-06-30T13:56:55.169Z,97773.56
2017-06-30T13:59:25.294Z,97779.78
2017-06-30T14:01:54.747Z,97772.84
2017-06-30T14:04:24.242Z,97775.08
2017-06-30T14:06:53.752Z,97766.25
2017-06-30T14:09:23.202Z,97765.01
2017-06-30T14:11:52.724Z,97752.99
2017-06-30T14:14:22.183Z,97745.48
2017-06-30T14:16:51.637Z,97748.43
2017-06-30T14:19:21.099Z,97736.60
2017-06-30T14:21:50.553Z,97734.92
2017-06-30T14:24:19.989Z,97729.77
2017-06-30T14:26:49.458Z,97720.43
2017-06-30T14:29:18.921Z,97719.14
2017-06-30T14:31:48.349Z,97714.77
2017-06-30T14:34:17.810Z,97703.42
2017-06-30T14:36:47.242Z,97717.72
2017-06-30T14:39:16.698Z,97712.62
2017-06-30T14:41:46.144Z,97721.91
2017-06-30T14:44:15.586Z,97710.27
2017-06-30T14:46:45.030Z,97705.88
2017-06-30T14:49:14.509Z,97703.12
2017-06-30T14:51:43.938Z,97701.41
2017-06-30T14:54:13.387Z,97694.25
2017-06-30T14:56:42.910Z,97697.41
2017-06-30T14:59:12.357Z,97693.20
2017-06-30T15:01:41.806Z,97693.03
2017-06-30T15:04:11.275Z,97696.19
2017-06-30T15:06:40.810Z,97694.85
2017-06-30T15:09:10.249Z,97693.34
2017-06-30T15:11:39.700Z,97679.46
2017-06-30T15:14:09.157Z,97693.89
2017-06-30T15:16:40.258Z,97700.34
2017-06-30T15:19:09.712Z,97688.25
2017-06-30T15:21:39.152Z,97693.72
2017-06-30T15:24:08.605Z,97694.88
2017-06-30T15:26:38.058Z,97700.38
2017-06-30T15:29:07.505Z,97702.25
2017-06-30T15:31:36.937Z,97699.86
2017-06-30T15:34:06.456Z,97687.74
2017-06-30T15:36:35.896Z,97686.33
2017-06-30T15:39:04.750Z,97691.91
2017-06-30T15:41:34.188Z,97702.69
2017-06-30T15:44:03.633Z,97694.97
2017-06-30T15:46:33.092Z,97691.41
2017-06-30T15:51:41.189Z,97696.84
2017-06-30T15:54:10.670Z,97687.20
2017-06-30T15:56:40.128Z,97687.73
2017-06-30T15:59:09.599Z,97704.88
2017-06-30T16:01:39.060Z,97705.16
2017-06-30T16:04:09.292Z,97706.01
2017-06-30T16:06:38.740Z,97706.45
2017-06-30T16:09:08.184Z,97695.78
2017-06-30T16:11:37.641Z,97684.00
2017-06-30T16:14:07.168Z,97672.02
2017-06-30T16:16:36.598Z,97673.64
2017-06-30T16:19:06.046Z,97661.37
2017-06-30T16:21:35.486Z,97652.98
2017-06-30T16:24:04.933Z,97661.33
2017-06-30T16:26:34.397Z,97664.11
2017-06-30T16:29:03.879Z,97656.26
2017-06-30T16:31:33.311Z,97673.81
2017-06-30T16:34:02.763Z,97667.05
2017-06-30T16:36:32.218Z,97673.72
2017-06-30T16:39:01.690Z,97672.72
2017-06-30T16:41:30.958Z,97677.42
2017-06-30T16:44:00.432Z,97673.88
2017-06-30T16:46:29.885Z,97671.81
2017-06-30T16:48:59.353Z,97682.55
2017-06-30T16:51:28.808Z,97680.12
2017-06-30T16:53:58.276Z,97678.21
2017-06-30T16:56:27.720Z,97678.34
2017-06-30T16:58:57.166Z,97679.11
2017-06-30T17:01:26.748Z,97683.48
2017-06-30T17:03:56.188Z,97672.61
2017-06-30T17:06:25.633Z,97671.52
2017-06-30T17:08:55.083Z,97685.79
2017-06-30T17:11:24.589Z,97679.20
2017-06-30T17:13:54.029Z,97683.11
2017-06-30T17:16:23.507Z,97686.42
2017-06-30T17:18:52.949Z,97691.66
2017-06-30T17:21:22.389Z,97695.54
2017-06-30T17:23:51.845Z,97703.12
2017-06-30T17:26:21.310Z,97711.52
2017-06-30T17:28:50.794Z,97710.00
2017-06-30T17:31:20.224Z,97713.09
2017-06-30T17:33:49.720Z,97710.20
2017-06-30T17:36:19.211Z,97716.40
2017-06-30T17:38:48.409Z,97736.14
2017-06-30T17:41:17.857Z,97738.44
2017-06-30T17:43:47.311Z,97740.19
2017-06-30T17:46:16.748Z,97731.41
2017-06-30T17:48:46.202Z,97729.98
2017-06-30T17:51:15.653Z,97745.70
2017-06-30T17:53:45.122Z,97758.47
2017-06-30T17:56:14.590Z,97759.30
2017-06-30T17:58:44.053Z,97784.81
2017-06-30T18:01:13.509Z,97810.89
2017-06-30T18:03:42.984Z,97823.92
2017-06-30T18:06:12.401Z,97817.10
2017-06-30T18:08:41.865Z,97843.74
2017-06-30T18:11:11.325Z,97782.03
2017-06-30T18:13:40.805Z,97770.02
2017-06-30T18:16:10.262Z,97750.47
2017-06-30T18:18:39.703Z,97735.59
2017-06-30T18:21:09.201Z,97731.02
2017-06-30T18:23:38.618Z,97719.56
2017-06-30T18:26:08.045Z,97746.48
2017-06-30T18:28:37.519Z,97773.59
2017-06-30T18:31:06.984Z,97775.26
2017-06-30T18:33:36.425Z,97778.09
2017-06-30T18:36:05.872Z,97783.81
2017-06-30T18:38:35.346Z,97790.98
2017-06-30T18:41:04.937Z,97788.10
2017-06-30T18:43:34.372Z,97803.69
2017-06-30T18:46:03.835Z,97801.09
2017-06-30T18:48:33.288Z,97794.97
2017-06-30T18:51:02.737Z,97809.11
2017-06-30T18:53:32.241Z,97844.05
2017-06-30T18:56:01.677Z,97854.87
2017-06-30T18:58:31.131Z,97880.52
2017-06-30T19:01:00.585Z,97877.13
2017-06-30T19:03:30.077Z,97877.93
2017-06-30T19:05:59.509Z,97885.55
2017-06-30T19:08:29.808Z,97898.71
2017-06-30T19:10:59.276Z,97914.88
2017-06-30T19:13:28.717Z,97906.50
2017-06-30T19:15:58.186Z,97898.25
2017-06-30T19:18:27.649Z,97892.78
2017-06-30T19:20:57.154Z,97887.72
2017-06-30T19:23:26.606Z,97891.97
2017-06-30T19:25:56.076Z,97886.09
2017-06-30T19:28:25.536Z,97885.70
2017-06-30T19:30:54.978Z,97883.91
2017-06-30T19:33:24.537Z,97890.37
2017-06-30T19:35:54.011Z,97899.45
2017-06-30T19:38:23.455Z,97896.29
2017-06-30T19:40:52.921Z,97907.74
2017-06-30T19:43:22.437Z,97910.55
2017-06-30T19:45:51.888Z,97924.91
2017-06-30T19:48:21.341Z,97921.36
2017-06-30T19:50:50.812Z,97909.70
2017-06-30T19:53:20.249Z,97921.30
2017-06-30T19:55:49.556Z,97921.86
2017-06-30T19:58:18.982Z,97904.34
2017-06-30T20:00:48.476Z,97907.63
2017-06-30T20:03:18.038Z,97911.30
2017-06-30T20:05:47.513Z,97899.43
2017-06-30T20:08:17.787Z,97894.69
2017-06-30T20:10:47.359Z,97890.95
2017-06-30T20:13:17.192Z,97904.20
2017-06-30T20:15:47.052Z,97897.00
2017-06-30T20:18:16.836Z,97893.98
2017-06-30T20:20:46.566Z,97905.70
2017-06-30T20:23:16.307Z,97910.52
2017-06-30T20:25:46.038Z,97919.72
2017-06-30T20:28:15.773Z,97911.11
2017-06-30T20:30:45.520Z,97909.52
2017-06-30T20:33:15.012Z,97916.50
2017-06-30T20:35:44.754Z,97902.38
2017-06-30T20:38:14.492Z,97904.61
2017-06-30T20:40:44.235Z,97908.59
2017-06-30T20:43:13.638Z,97903.47
2017-06-30T20:45:43.382Z,97903.28
2017-06-30T20:48:13.127Z,97906.70
2017-06-30T20:50:42.872Z,97900.95
2017-06-30T20:53:12.645Z,97905.91
2017-06-30T20:55:42.386Z,97905.05
2017-06-30T20:58:12.134Z,97912.14
2017-06-30T21:00:41.872Z,97913.02
2017-06-30T21:03:11.625Z,97914.33
2017-06-30T21:05:41.451Z,97917.16
2017-06-30T21:08:11.200Z,97923.70
2017-06-30T21:10:40.987Z,97918.28
2017-06-30T21:13:10.705Z,97920.66
2017-06-30T21:15:40.433Z,97911.73
2017-06-30T21:18:10.186Z,97906.01
2017-06-30T21:20:39.924Z,97909.08
2017-06-30T21:23:09.660Z,97910.63
2017-06-30T21:25:39.424Z,97910.81
2017-06-30T21:28:09.165Z,97907.86
2017-06-30T21:30:38.925Z,97918.66
2017-06-30T21:33:08.701Z,97924.98
2017-06-30T21:35:38.484Z,97926.08
2017-06-30T21:38:08.237Z,97930.40
2017-06-30T21:40:37.989Z,97943.01
2017-06-30T21:43:07.783Z,97942.37
2017-06-30T21:45:37.515Z,97944.35
2017-06-30T21:48:07.270Z,97953.97
2017-06-30T21:50:37.021Z,97957.56
2017-06-30T21:53:06.790Z,97953.36
2017-06-30T21:55:36.518Z,97952.67
2017-06-30T21:58:06.258Z,97957.36
2017-06-30T22:00:35.977Z,97947.52
2017-06-30T22:03:05.713Z,97938.67
2017-06-30T22:05:35.455Z,97937.64
2017-06-30T22:08:05.199Z,97936.69
2017-06-30T22:10:35.000Z,97932.08
2017-06-30T22:13:04.737Z,97928.64
2017-06-30T22:15:34.445Z,97927.09
2017-06-30T22:18:04.209Z,97918.05
2017-06-30T22:20:33.936Z,97921.19
2017-06-30T22:23:03.694Z,97927.57
2017-06-30T22:25:33.432Z,97928.09
2017-06-30T22:28:03.175Z,97932.45
2017-06-30T22:30:32.893Z,97932.64
2017-06-30T22:33:02.633Z,97930.94
2017-06-30T22:35:32.367Z,97928.64
2017-06-30T22:38:02.115Z,97936.02
2017-06-30T22:40:31.837Z,97932.81
2017-06-30T22:43:01.599Z,97929.02
2017-06-30T22:45:31.413Z,97926.59
2017-06-30T22:48:01.123Z,97926.38
2017-06-30T22:50:30.840Z,97922.91
2017-06-30T22:53:00.576Z,97921.73
2017-06-30T22:55:30.310Z,97917.72
2017-06-30T22:58:00.056Z,97919.76
2017-06-30T23:00:29.847Z,97916.02
2017-06-30T23:02:59.400Z,97909.55
2017-06-30T23:05:29.137Z,97910.92
2017-06-30T23:07:58.916Z,97911.64
2017-06-30T23:10:28.645Z,97912.20
2017-06-30T23:12:58.379Z,97913.47
2017-06-30T23:15:28.117Z,97910.53
2017-06-30T23:17:57.856Z,97911.69
2017-06-30T23:20:27.630Z,97914.59
2017-06-30T23:22:57.348Z,97912.80
2017-06-30T23:25:27.098Z,97908.43
2017-06-30T23:27:56.825Z,97915.73
2017-06-30T23:30:26.577Z,97913.49
2017-06-30T23:32:56.323Z,97916.30
2017-06-30T23:35:26.047Z,97911.79
2017-06-30T23:37:55.811Z,97918.66
2017-06-30T23:40:25.585Z,97906.30
2017-06-30T23:42:54.973Z,97914.72
2017-06-30T23:45:24.730Z,97911.30
2017-06-30T23:47:54.289Z,97909.58
2017-06-30T23:50:24.062Z,97916.77
2017-06-30T23:52:53.795Z,97909.23
2017-06-30T23:55:23.573Z,97908.09
2017-06-30T23:57:53.308Z,97902.69
